createdAt,value
2018-11-06T00:00:27.441Z,21.13
2018-11-06T00:03:01.556Z,19.70
2018-11-06T00:05:30.423Z,20.07
2018-11-06T00:07:59.238Z,20.03
2018-11-06T00:10:28.201Z,21.17
2018-11-06T00:12:57.023Z,19.00
2018-11-06T00:15:25.949Z,21.13
2018-11-06T00:17:54.795Z,20.30
2018-11-06T00:20:23.636Z,18.90
2018-11-06T00:22:52.496Z,21.37
2018-11-06T00:25:21.319Z,18.73
2018-11-06T00:27:50.164Z,18.40
2018-11-06T00:30:18.964Z,20.03
2018-11-06T00:32:47.833Z,16.73
2018-11-06T00:35:16.623Z,18.90
2018-11-06T00:37:45.991Z,21.13
2018-11-06T00:40:14.910Z,20.93
2018-11-06T00:42:43.792Z,19.67
2018-11-06T00:45:15.706Z,19.67
2018-11-06T00:47:44.570Z,20.93
2018-11-06T00:50:14.183Z,18.33
2018-11-06T00:52:43.875Z,19.77
2018-11-06T00:55:12.938Z,20.13
2018-11-06T00:57:42.953Z,19.03
2018-11-06T01:00:14.104Z,20.27
2018-11-06T01:02:42.908Z,19.43
2018-11-06T01:05:12.707Z,19.90
2018-11-06T01:07:42.650Z,18.53
2018-11-06T01:10:11.778Z,19.30
2018-11-06T01:12:40.872Z,19.43
2018-11-06T01:15:12.066Z,20.20
2018-11-06T01:17:41.295Z,20.57
2018-11-06T01:20:12.490Z,19.37
2018-11-06T01:22:41.342Z,18.37
2018-11-06T01:25:10.901Z,19.47
2018-11-06T01:27:39.895Z,19.63
2018-11-06T01:30:12.933Z,21.10
2018-11-06T01:32:42.161Z,19.07
2018-11-06T01:35:12.505Z,19.40
2018-11-06T01:37:41.839Z,21.27
2018-11-06T01:40:12.867Z,20.60
2018-11-06T01:42:42.431Z,21.60
2018-11-06T01:45:13.095Z,21.00
2018-11-06T01:47:42.147Z,20.77
2018-11-06T01:50:13.105Z,19.73
2018-11-06T01:52:43.104Z,19.37
2018-11-06T01:55:12.380Z,19.40
2018-11-06T01:57:41.462Z,20.50
2018-11-06T02:00:12.978Z,19.43
2018-11-06T02:02:41.886Z,21.87
2018-11-06T02:05:12.615Z,20.87
2018-11-06T02:07:42.266Z,21.27
2018-11-06T02:10:12.527Z,22.40
2018-11-06T02:12:42.118Z,20.90
2018-11-06T02:15:10.979Z,20.13
2018-11-06T02:17:41.053Z,20.17
2018-11-06T02:20:11.069Z,21.50
2018-11-06T02:22:41.016Z,20.97
2018-11-06T02:25:10.537Z,20.87
2018-11-06T02:27:39.486Z,20.93
2018-11-06T02:30:10.487Z,20.80
2018-11-06T02:32:39.361Z,19.60
2018-11-06T02:35:08.330Z,19.93
2018-11-06T02:37:37.712Z,21.03
2018-11-06T02:40:07.238Z,21.03
2018-11-06T02:42:36.118Z,20.67
2018-11-06T02:45:05.017Z,20.67
2018-11-06T02:47:33.861Z,21.00
2018-11-06T02:50:02.688Z,22.37
2018-11-06T02:52:31.538Z,22.67
2018-11-06T02:55:00.358Z,22.97
2018-11-06T02:57:29.231Z,21.80
2018-11-06T02:59:58.106Z,20.80
2018-11-06T03:02:26.951Z,20.57
2018-11-06T03:04:55.767Z,23.00
2018-11-06T03:07:24.564Z,22.27
2018-11-06T03:09:53.427Z,24.13
2018-11-06T03:12:24.171Z,22.37
2018-11-06T03:14:53.045Z,21.57
2018-11-06T03:17:21.853Z,20.97
2018-11-06T03:19:50.741Z,23.13
2018-11-06T03:22:19.552Z,22.83
2018-11-06T03:24:48.366Z,23.47
2018-11-06T03:27:17.243Z,23.23
2018-11-06T03:29:46.067Z,22.27
2018-11-06T03:32:14.883Z,23.00
2018-11-06T03:34:43.733Z,22.50
2018-11-06T03:37:12.539Z,24.43
2018-11-06T03:39:41.342Z,23.33
2018-11-06T03:42:10.210Z,23.30
2018-11-06T03:44:39.030Z,22.90
2018-11-06T03:47:07.904Z,23.67
2018-11-06T03:49:36.743Z,24.00
2018-11-06T03:52:05.829Z,23.17
2018-11-06T03:54:34.679Z,23.17
2018-11-06T03:57:03.554Z,24.63
2018-11-06T03:59:32.455Z,23.97
2018-11-06T04:02:01.399Z,23.27
2018-11-06T04:04:30.253Z,23.80
2018-11-06T04:06:59.100Z,23.97
2018-11-06T04:09:27.953Z,24.13
2018-11-06T04:11:56.750Z,23.53
2018-11-06T04:14:25.559Z,24.60
2018-11-06T04:16:54.436Z,23.77
2018-11-06T04:19:23.236Z,24.17
2018-11-06T04:21:52.067Z,24.90
2018-11-06T04:24:20.901Z,24.33
2018-11-06T04:26:49.785Z,25.00
2018-11-06T04:29:18.642Z,25.43
2018-11-06T04:31:47.488Z,25.17
2018-11-06T04:34:16.347Z,25.07
2018-11-06T04:36:45.166Z,22.57
2018-11-06T04:39:14.051Z,24.43
2018-11-06T04:41:42.850Z,24.63
2018-11-06T04:44:11.737Z,25.63
2018-11-06T04:46:40.581Z,25.73
2018-11-06T04:49:09.418Z,26.90
2018-11-06T04:51:38.189Z,25.77
2018-11-06T04:54:07.035Z,26.23
2018-11-06T04:56:36.859Z,26.43
2018-11-06T04:59:05.782Z,26.23
2018-11-06T05:01:34.674Z,25.70
2018-11-06T05:04:03.553Z,25.40
2018-11-06T05:06:32.361Z,27.80
2018-11-06T05:09:01.174Z,24.53
2018-11-06T05:11:30.014Z,27.40
2018-11-06T05:13:58.871Z,26.77
2018-11-06T05:16:27.764Z,27.53
2018-11-06T05:18:56.571Z,28.67
2018-11-06T05:21:25.425Z,27.17
2018-11-06T05:23:54.256Z,26.20
2018-11-06T05:26:23.100Z,30.40
2018-11-06T05:28:51.916Z,27.63
2018-11-06T05:31:20.764Z,27.33
2018-11-06T05:33:49.559Z,28.30
2018-11-06T05:36:18.399Z,26.53
2018-11-06T05:38:47.244Z,26.93
2018-11-06T05:41:16.110Z,25.83
2018-11-06T05:43:44.966Z,26.33
2018-11-06T05:46:13.854Z,26.73
2018-11-06T05:48:42.709Z,27.37
2018-11-06T05:51:11.590Z,30.00
2018-11-06T05:53:40.455Z,27.90
2018-11-06T05:56:09.244Z,28.67
2018-11-06T05:58:38.088Z,30.50
2018-11-06T06:01:06.967Z,30.43
2018-11-06T06:03:35.822Z,29.77
2018-11-06T06:06:04.817Z,32.03
2018-11-06T06:08:33.658Z,30.17
2018-11-06T06:11:02.694Z,30.57
2018-11-06T06:13:31.616Z,30.33
2018-11-06T06:16:00.450Z,28.40
2018-11-06T06:18:29.410Z,28.67
2018-11-06T06:20:58.334Z,30.50
2018-11-06T06:23:27.145Z,30.73
2018-11-06T06:25:56.000Z,29.77
2018-11-06T06:28:24.843Z,28.57
2018-11-06T06:30:53.761Z,30.10
2018-11-06T06:33:22.613Z,30.87
2018-11-06T06:35:51.475Z,29.40
2018-11-06T06:38:20.321Z,30.13
2018-11-06T06:40:49.273Z,29.60
2018-11-06T06:43:18.073Z,29.63
2018-11-06T06:45:46.970Z,28.63
2018-11-06T06:48:15.778Z,29.30
2018-11-06T06:50:44.682Z,31.37
2018-11-06T06:53:13.505Z,31.13
2018-11-06T06:55:42.420Z,28.43
2018-11-06T06:58:11.206Z,29.53
2018-11-06T07:00:40.106Z,28.90
2018-11-06T07:03:08.946Z,31.03
2018-11-06T07:05:37.833Z,29.97
2018-11-06T07:08:06.758Z,29.83
2018-11-06T07:10:35.633Z,29.97
2018-11-06T07:13:04.593Z,30.37
2018-11-06T07:15:33.561Z,29.57
2018-11-06T07:18:02.438Z,31.03
2018-11-06T07:20:31.260Z,32.83
2018-11-06T07:23:00.157Z,32.17
2018-11-06T07:25:29.019Z,34.97
2018-11-06T07:27:57.857Z,32.20
2018-11-06T07:30:26.766Z,32.87
2018-11-06T07:32:55.593Z,33.53
2018-11-06T07:35:24.870Z,32.83
2018-11-06T07:37:53.625Z,35.17
2018-11-06T07:40:22.504Z,33.37
2018-11-06T07:42:51.334Z,33.37
2018-11-06T07:45:21.633Z,35.23
2018-11-06T07:47:50.475Z,33.50
2018-11-06T07:50:19.499Z,35.10
2018-11-06T07:52:48.271Z,33.97
2018-11-06T07:55:18.362Z,40.27
2018-11-06T07:57:47.278Z,37.27
2018-11-06T08:00:23.662Z,37.73
2018-11-06T08:02:52.528Z,36.77
2018-11-06T08:05:21.530Z,36.23
2018-11-06T08:07:51.046Z,37.23
2018-11-06T08:10:19.911Z,38.23
2018-11-06T08:12:50.175Z,40.50
2018-11-06T08:15:19.074Z,40.13
2018-11-06T08:17:48.093Z,38.23
2018-11-06T08:20:17.106Z,40.40
2018-11-06T08:22:45.977Z,39.50
2018-11-06T08:25:15.896Z,37.70
2018-11-06T08:27:45.172Z,37.27
2018-11-06T08:30:14.416Z,30.33
2018-11-06T08:32:43.752Z,28.87
2018-11-06T08:35:14.297Z,28.43
2018-11-06T08:37:43.450Z,27.07
2018-11-06T08:40:14.647Z,24.53
2018-11-06T08:42:43.664Z,23.30
2018-11-06T08:45:13.699Z,24.67
2018-11-06T08:47:43.823Z,24.80
2018-11-06T08:50:14.094Z,26.80
2018-11-06T08:52:43.071Z,25.80
2018-11-06T08:55:13.099Z,26.73
2018-11-06T08:57:42.716Z,25.53
2018-11-06T09:00:13.750Z,25.27
2018-11-06T09:02:43.303Z,23.57
2018-11-06T09:05:13.373Z,23.70
2018-11-06T09:07:42.255Z,21.23
2018-11-06T09:10:12.410Z,22.60
2018-11-06T09:12:41.423Z,21.07
2018-11-06T09:15:12.061Z,22.30
2018-11-06T09:17:41.018Z,22.50
2018-11-06T09:20:11.428Z,21.10
2018-11-06T09:22:40.288Z,20.03
2018-11-06T09:25:12.668Z,21.87
2018-11-06T09:27:59.317Z,20.13
2018-11-06T09:30:29.137Z,21.97
2018-11-06T09:32:57.872Z,21.00
2018-11-06T09:35:26.710Z,20.77
2018-11-06T09:37:55.639Z,19.93
2018-11-06T09:40:25.488Z,20.30
2018-11-06T09:42:54.299Z,18.17
2018-11-06T09:45:23.144Z,20.37
2018-11-06T09:47:51.825Z,18.57
2018-11-06T09:50:22.874Z,18.80
2018-11-06T09:52:51.703Z,20.03
2018-11-06T09:55:43.164Z,18.87
2018-11-06T09:58:32.725Z,18.20
2018-11-06T10:01:25.702Z,18.03
2018-11-06T10:04:16.782Z,18.03
2018-11-06T10:06:46.210Z,16.97
2018-11-06T10:09:15.109Z,18.73
2018-11-06T10:11:44.118Z,18.87
2018-11-06T10:14:13.036Z,18.33
2018-11-06T10:16:41.767Z,17.13
2018-11-06T10:19:10.506Z,16.07
2018-11-06T10:21:39.246Z,16.87
2018-11-06T10:24:08.037Z,17.23
2018-11-06T10:26:36.702Z,17.57
2018-11-06T10:29:08.136Z,16.80
2018-11-06T10:31:37.363Z,15.87
2018-11-06T10:34:06.157Z,16.33
2018-11-06T10:36:35.981Z,16.90
2018-11-06T10:39:06.454Z,16.47
2018-11-06T10:41:35.226Z,16.50
2018-11-06T10:44:03.987Z,16.10
2018-11-06T10:46:32.857Z,16.17
2018-11-06T10:49:02.550Z,17.57
2018-11-06T10:51:32.314Z,16.00
2018-11-06T10:54:02.593Z,15.63
2018-11-06T10:56:32.526Z,16.33
2018-11-06T10:59:02.962Z,15.93
2018-11-06T11:01:42.914Z,15.03
2018-11-06T11:04:16.435Z,15.37
2018-11-06T11:06:45.486Z,15.80
2018-11-06T11:09:14.433Z,16.10
2018-11-06T11:11:49.270Z,15.03
2018-11-06T11:14:19.515Z,15.47
2018-11-06T11:16:49.287Z,16.13
2018-11-06T11:19:19.894Z,15.40
2018-11-06T11:21:50.779Z,14.23
2018-11-06T11:24:24.419Z,14.73
2018-11-06T11:26:54.419Z,14.07
2018-11-06T11:29:24.376Z,13.70
2018-11-06T11:31:54.045Z,14.37
2018-11-06T11:34:24.936Z,14.97
2018-11-06T11:36:55.062Z,14.63
2018-11-06T11:39:25.272Z,14.73
2018-11-06T11:41:55.420Z,13.07
2018-11-06T11:44:25.620Z,13.03
2018-11-06T11:46:55.744Z,14.17
2018-11-06T11:49:26.101Z,12.83
2018-11-06T11:51:56.154Z,12.10
2018-11-06T11:54:25.909Z,12.27
2018-11-06T11:56:57.942Z,11.97
2018-11-06T11:59:32.931Z,13.63
2018-11-06T12:02:03.047Z,12.93
2018-11-06T12:04:33.152Z,12.63
2018-11-06T12:07:02.984Z,13.20
2018-11-06T12:09:32.106Z,13.90
2018-11-06T12:12:04.929Z,12.63
2018-11-06T12:14:51.477Z,13.33
2018-11-06T12:17:37.499Z,13.33
2018-11-06T12:20:18.021Z,12.40
2018-11-06T12:22:47.283Z,13.97
2018-11-06T12:25:16.336Z,13.00
2018-11-06T12:27:45.207Z,13.27
2018-11-06T12:30:16.265Z,12.23
2018-11-06T12:32:45.154Z,12.80
2018-11-06T12:35:14.723Z,11.90
2018-11-06T12:37:43.966Z,12.33
2018-11-06T12:40:13.652Z,12.57
2018-11-06T12:42:43.727Z,12.47
2018-11-06T12:45:15.030Z,12.93
2018-11-06T12:47:44.179Z,13.37
2018-11-06T12:50:13.892Z,13.07
2018-11-06T12:52:42.926Z,11.73
2018-11-06T12:55:14.756Z,12.73
2018-11-06T12:57:43.513Z,12.30
2018-11-06T13:00:14.465Z,12.37
2018-11-06T13:02:43.406Z,12.63
2018-11-06T13:05:12.189Z,12.47
2018-11-06T13:07:42.001Z,11.70
2018-11-06T13:10:11.877Z,12.27
2018-11-06T13:12:41.259Z,11.97
2018-11-06T13:15:10.837Z,12.60
2018-11-06T13:17:39.724Z,13.20
2018-11-06T13:20:10.341Z,12.47
2018-11-06T13:22:40.379Z,12.87
2018-11-06T13:25:09.250Z,13.07
2018-11-06T13:27:39.717Z,12.53
2018-11-06T13:30:13.313Z,13.17
2018-11-06T13:32:43.979Z,13.17
2018-11-06T13:35:14.064Z,12.20
2018-11-06T13:37:44.107Z,14.13
2018-11-06T13:40:24.911Z,12.23
2018-11-06T13:42:54.483Z,13.17
2018-11-06T13:45:25.724Z,13.47
2018-11-06T13:47:57.232Z,13.63
2018-11-06T13:50:27.516Z,13.77
2018-11-06T13:52:57.999Z,13.93
2018-11-06T13:55:40.682Z,15.27
2018-11-06T13:58:15.639Z,16.80
2018-11-06T14:00:45.745Z,16.47
2018-11-06T14:03:16.039Z,18.10
2018-11-06T14:05:47.257Z,19.93
2018-11-06T14:08:23.375Z,17.70
2018-11-06T14:11:10.453Z,18.13
2018-11-06T14:13:39.992Z,18.30
2018-11-06T14:16:08.810Z,17.60
2018-11-06T14:18:37.711Z,18.63
2018-11-06T14:21:06.597Z,18.00
2018-11-06T14:23:38.668Z,18.40
2018-11-06T14:26:30.345Z,18.33
2018-11-06T14:29:00.383Z,17.23
2018-11-06T14:31:29.420Z,18.63
2018-11-06T14:34:06.107Z,17.33
2018-11-06T14:36:34.989Z,18.13
2018-11-06T14:39:04.170Z,17.83
2018-11-06T14:41:33.217Z,16.97
2018-11-06T14:44:02.097Z,17.97
2018-11-06T14:46:31.527Z,18.30
2018-11-06T14:49:00.666Z,16.97
2018-11-06T14:51:29.534Z,17.43
2018-11-06T14:53:58.285Z,17.97
2018-11-06T14:56:28.573Z,16.93
2018-11-06T14:58:58.657Z,16.37
2018-11-06T15:01:28.738Z,16.20
2018-11-06T15:03:58.626Z,16.80
2018-11-06T15:06:29.231Z,18.07
2018-11-06T15:08:59.073Z,17.17
2018-11-06T15:11:29.126Z,18.00
2018-11-06T15:14:03.238Z,18.90
2018-11-06T15:16:39.987Z,17.60
2018-11-06T15:19:18.383Z,18.10
2018-11-06T15:22:05.774Z,18.00
2018-11-06T15:24:35.715Z,18.17
2018-11-06T15:27:15.378Z,18.33
2018-11-06T15:29:56.445Z,18.30
2018-11-06T15:32:26.950Z,17.90
2018-11-06T15:35:12.027Z,17.33
2018-11-06T15:37:46.258Z,17.93
2018-11-06T15:40:22.234Z,17.63
2018-11-06T15:42:56.693Z,17.63
2018-11-06T15:45:33.631Z,18.47
2018-11-06T15:48:07.212Z,18.43
2018-11-06T15:50:50.372Z,18.27
2018-11-06T15:53:20.129Z,17.50
2018-11-06T15:55:49.952Z,17.20
2018-11-06T15:58:20.894Z,18.93
2018-11-06T16:00:52.992Z,19.87
2018-11-06T16:03:24.112Z,18.00
2018-11-06T16:05:56.872Z,18.27
2018-11-06T16:08:28.419Z,18.00
2018-11-06T16:10:59.191Z,18.70
2018-11-06T16:13:34.119Z,20.10
2018-11-06T16:16:05.134Z,20.63
2018-11-06T16:18:35.882Z,21.30
2018-11-06T16:21:06.642Z,19.90
2018-11-06T16:23:37.581Z,20.60
2018-11-06T16:26:08.134Z,19.20
2018-11-06T16:28:38.781Z,20.90
2018-11-06T16:31:11.686Z,22.30
2018-11-06T16:33:42.283Z,21.50
2018-11-06T16:36:17.668Z,23.63
2018-11-06T16:38:48.878Z,22.03
2018-11-06T16:41:19.906Z,21.70
2018-11-06T16:43:58.143Z,22.50
2018-11-06T16:46:41.204Z,22.77
2018-11-06T16:49:15.903Z,22.00
2018-11-06T16:51:57.192Z,21.47
2018-11-06T16:54:27.956Z,21.80
2018-11-06T16:56:59.080Z,20.03
2018-11-06T16:59:29.884Z,20.40
2018-11-06T17:02:08.802Z,21.00
2018-11-06T17:04:40.457Z,21.63
2018-11-06T17:07:11.342Z,20.00
2018-11-06T17:09:49.156Z,21.87
2018-11-06T17:12:21.816Z,21.87
2018-11-06T17:14:57.568Z,19.97
2018-11-06T17:17:30.697Z,20.43
2018-11-06T17:20:13.541Z,21.67
2018-11-06T17:22:47.685Z,21.80
2018-11-06T17:25:19.610Z,21.67
2018-11-06T17:28:00.324Z,23.10
2018-11-06T17:30:31.806Z,19.57
2018-11-06T17:33:02.641Z,22.10
2018-11-06T17:35:32.085Z,22.07
2018-11-06T17:38:12.505Z,21.23
2018-11-06T17:41:02.991Z,22.43
2018-11-06T17:43:38.309Z,22.43
2018-11-06T17:46:09.545Z,22.60
2018-11-06T17:48:46.049Z,21.23
2018-11-06T17:51:36.970Z,22.00
2018-11-06T17:54:13.755Z,22.20
2018-11-06T17:56:57.161Z,20.33
2018-11-06T17:59:36.116Z,21.77
2018-11-06T18:02:30.266Z,23.40
2018-11-06T18:05:23.526Z,22.70
2018-11-06T18:08:00.187Z,21.93
2018-11-06T18:10:31.957Z,22.67
2018-11-06T18:13:13.854Z,25.17
2018-11-06T18:16:01.487Z,23.03
2018-11-06T18:18:43.054Z,23.27
2018-11-06T18:21:26.524Z,24.53
2018-11-06T18:24:11.278Z,23.87
2018-11-06T18:26:56.503Z,23.83
2018-11-06T18:29:40.797Z,23.33
2018-11-06T18:32:40.955Z,24.03
2018-11-06T18:35:31.671Z,22.30
2018-11-06T18:38:25.252Z,23.50
2018-11-06T18:41:05.414Z,22.60
2018-11-06T18:43:51.092Z,23.13
2018-11-06T18:46:40.022Z,22.83
2018-11-06T18:49:36.010Z,23.20
2018-11-06T18:52:25.684Z,23.17
2018-11-06T18:55:17.342Z,22.87
2018-11-06T18:58:00.525Z,22.03
2018-11-06T19:00:31.430Z,24.30
2018-11-06T19:03:06.830Z,23.40
2018-11-06T19:05:36.034Z,24.83
2018-11-06T19:08:06.419Z,26.30
2018-11-06T19:10:35.249Z,26.70
2018-11-06T19:13:04.173Z,27.53
2018-11-06T19:15:33.104Z,27.20
2018-11-06T19:18:02.031Z,26.43
2018-11-06T19:20:30.876Z,24.30
2018-11-06T19:22:59.720Z,25.70
2018-11-06T19:25:28.913Z,23.77
2018-11-06T19:28:00.420Z,23.37
2018-11-06T19:30:29.617Z,23.00
2018-11-06T19:32:59.282Z,26.13
2018-11-06T19:35:28.884Z,27.07
2018-11-06T19:37:58.298Z,25.10
2018-11-06T19:40:27.447Z,23.90
2018-11-06T19:42:57.087Z,24.60
2018-11-06T19:45:26.665Z,25.63
2018-11-06T19:47:55.917Z,27.93
2018-11-06T19:50:24.727Z,26.33
2018-11-06T19:52:53.649Z,26.83
2018-11-06T19:55:22.500Z,25.90
2018-11-06T19:57:51.352Z,24.60
2018-11-06T20:00:21.613Z,24.97
2018-11-06T20:02:51.601Z,28.77
2018-11-06T20:05:21.029Z,28.20
2018-11-06T20:07:51.215Z,27.67
2018-11-06T20:10:21.626Z,26.20
2018-11-06T20:12:53.412Z,27.00
2018-11-06T20:15:22.968Z,26.50
2018-11-06T20:17:52.151Z,26.47
2018-11-06T20:20:24.228Z,24.17
2018-11-06T20:22:53.331Z,28.23
2018-11-06T20:25:22.239Z,27.67
2018-11-06T20:27:51.190Z,28.53
2018-11-06T20:30:21.409Z,26.70
2018-11-06T20:32:50.937Z,25.17
2018-11-06T20:35:19.927Z,27.17
2018-11-06T20:37:48.797Z,25.57
2018-11-06T20:40:19.278Z,26.63
2018-11-06T20:42:48.298Z,25.17
2018-11-06T20:45:18.250Z,27.00
2018-11-06T20:47:47.148Z,27.03
2018-11-06T20:50:19.331Z,26.87
2018-11-06T20:52:48.472Z,26.83
2018-11-06T20:55:18.222Z,27.13
2018-11-06T20:57:47.184Z,26.13
2018-11-06T21:00:22.270Z,26.27
2018-11-06T21:02:52.254Z,27.87
2018-11-06T21:05:21.157Z,25.60
2018-11-06T21:07:50.067Z,25.67
2018-11-06T21:10:20.234Z,26.00
2018-11-06T21:12:49.517Z,30.47
2018-11-06T21:15:18.414Z,32.73
2018-11-06T21:17:47.252Z,25.27
2018-11-06T21:20:16.906Z,24.27
2018-11-06T21:22:45.833Z,27.70
2018-11-06T21:25:14.887Z,28.07
2018-11-06T21:27:43.947Z,26.17
2018-11-06T21:30:14.837Z,24.87
2018-11-06T21:32:44.802Z,26.20
2018-11-06T21:35:13.675Z,26.53
2018-11-06T21:37:42.588Z,26.73
2018-11-06T21:40:13.898Z,26.37
2018-11-06T21:42:43.453Z,26.30
2018-11-06T21:45:13.208Z,28.30
2018-11-06T21:47:43.001Z,26.57
2018-11-06T21:50:12.801Z,28.33
2018-11-06T21:52:41.714Z,27.13
2018-11-06T21:55:12.002Z,29.97
2018-11-06T21:57:40.955Z,29.97
2018-11-06T22:00:13.342Z,29.93
2018-11-06T22:02:42.249Z,28.60
2018-11-06T22:05:12.585Z,27.60
2018-11-06T22:07:41.995Z,27.57
2018-11-06T22:10:13.075Z,29.40
2018-11-06T22:12:42.662Z,25.77
2018-11-06T22:15:12.608Z,27.03
2018-11-06T22:17:41.671Z,26.93
2018-11-06T22:20:12.227Z,27.43
2018-11-06T22:22:41.498Z,24.93
2018-11-06T22:25:10.378Z,29.67
2018-11-06T22:27:39.280Z,26.83
2018-11-06T22:30:10.121Z,28.07
2018-11-06T22:32:39.984Z,28.90
2018-11-06T22:35:10.230Z,28.20
2018-11-06T22:37:39.062Z,24.93
2018-11-06T22:40:08.692Z,28.67
2018-11-06T22:42:37.971Z,27.97
2018-11-06T22:45:08.652Z,28.40
2018-11-06T22:47:37.494Z,27.30
2018-11-06T22:50:07.848Z,28.67
2018-11-06T22:52:36.659Z,28.27
2018-11-06T22:55:05.812Z,28.73
2018-11-06T22:57:34.842Z,27.47
2018-11-06T23:00:03.882Z,32.10
2018-11-06T23:02:32.755Z,29.50
2018-11-06T23:05:01.588Z,28.50
2018-11-06T23:07:35.587Z,28.93
2018-11-06T23:10:04.648Z,31.73
2018-11-06T23:12:33.597Z,31.50
2018-11-06T23:15:02.433Z,32.47
2018-11-06T23:17:31.273Z,30.30
2018-11-06T23:20:00.066Z,30.10
2018-11-06T23:22:28.975Z,29.07
2018-11-06T23:24:57.815Z,29.50
2018-11-06T23:27:26.707Z,31.17
2018-11-06T23:29:55.538Z,30.33
2018-11-06T23:32:24.406Z,30.30
2018-11-06T23:34:53.595Z,29.73
2018-11-06T23:37:22.469Z,30.70
2018-11-06T23:39:51.420Z,28.57
2018-11-06T23:42:20.312Z,29.83
2018-11-06T23:44:49.183Z,28.73
2018-11-06T23:47:17.970Z,28.70
2018-11-06T23:49:46.851Z,29.67
2018-11-06T23:52:15.655Z,26.73
2018-11-06T23:54:44.509Z,29.97
2018-11-06T23:57:13.301Z,28.90
2018-11-06T23:59:42.159Z,29.50
